createdAt,value
2022-10-12T00:01:32.104Z,12.99
2022-10-12T00:03:58.885Z,12.82
2022-10-12T00:06:25.703Z,12.70
2022-10-12T00:08:54.260Z,12.66
2022-10-12T00:11:26.187Z,12.62
2022-10-12T00:13:54.499Z,13.04
2022-10-12T00:16:23.140Z,12.72
2022-10-12T00:18:54.470Z,12.55
2022-10-12T00:21:22.459Z,12.56
2022-10-12T00:23:49.806Z,12.62
2022-10-12T00:26:21.466Z,12.59
2022-10-12T00:28:49.232Z,12.34
2022-10-12T00:31:18.402Z,12.31
2022-10-12T00:33:46.701Z,12.13
2022-10-12T00:36:15.475Z,12.10
2022-10-12T00:38:42.259Z,11.81
2022-10-12T00:41:08.949Z,11.72
2022-10-12T00:43:39.113Z,11.91
2022-10-12T00:46:13.814Z,11.82
2022-10-12T00:48:41.333Z,11.87
2022-10-12T00:51:09.779Z,11.83
2022-10-12T00:53:42.564Z,11.80
2022-10-12T00:56:16.041Z,11.84
2022-10-12T00:58:42.924Z,11.85
2022-10-12T01:01:10.503Z,12.16
2022-10-12T01:03:37.593Z,11.98
2022-10-12T01:06:06.234Z,11.83
2022-10-12T01:08:33.491Z,11.82
2022-10-12T01:11:00.100Z,11.97
2022-10-12T01:13:26.937Z,12.04
2022-10-12T01:16:03.167Z,11.98
2022-10-12T01:18:40.298Z,11.94
2022-10-12T01:21:13.922Z,12.26
2022-10-12T01:23:55.801Z,12.15
2022-10-12T01:26:39.796Z,12.07
2022-10-12T01:29:40.451Z,11.84
2022-10-12T01:32:25.784Z,11.91
2022-10-12T01:35:05.316Z,11.82
2022-10-12T01:37:48.827Z,11.88
2022-10-12T01:40:24.140Z,11.93
2022-10-12T01:42:51.492Z,11.91
2022-10-12T01:45:19.205Z,11.89
2022-10-12T01:47:49.810Z,11.98
2022-10-12T01:50:17.481Z,11.74
2022-10-12T01:52:59.273Z,11.92
2022-10-12T01:55:39.575Z,11.92
2022-10-12T01:58:23.473Z,11.87
2022-10-12T02:01:29.032Z,11.81
2022-10-12T02:04:13.667Z,11.82
2022-10-12T02:06:47.132Z,11.70
2022-10-12T02:09:32.958Z,11.98
2022-10-12T02:12:05.524Z,11.75
2022-10-12T02:14:41.110Z,11.82
2022-10-12T02:17:12.370Z,11.86
2022-10-12T02:19:45.026Z,11.70
2022-10-12T02:22:35.668Z,11.47
2022-10-12T02:25:11.033Z,11.48
2022-10-12T02:27:42.325Z,11.70
2022-10-12T02:30:10.215Z,11.71
2022-10-12T02:32:42.180Z,11.66
2022-10-12T02:35:25.363Z,11.60
2022-10-12T02:37:54.839Z,11.50
2022-10-12T02:40:37.642Z,11.53
2022-10-12T02:43:13.646Z,11.49
2022-10-12T02:45:44.586Z,11.45
2022-10-12T02:48:16.135Z,11.54
2022-10-12T02:50:43.764Z,11.42
2022-10-12T02:53:12.532Z,11.40
2022-10-12T02:55:48.039Z,11.40
2022-10-12T02:58:14.709Z,11.57
2022-10-12T03:00:41.384Z,11.57
2022-10-12T03:03:07.990Z,11.52
2022-10-12T03:05:34.590Z,11.49
2022-10-12T03:08:01.208Z,11.49
2022-10-12T03:10:27.877Z,11.53
2022-10-12T03:12:54.698Z,11.56
2022-10-12T03:15:21.877Z,11.43
2022-10-12T03:17:48.511Z,11.52
2022-10-12T03:20:15.681Z,11.30
2022-10-12T03:22:42.297Z,11.52
2022-10-12T03:25:09.130Z,11.35
2022-10-12T03:27:39.003Z,11.35
2022-10-12T03:30:06.575Z,11.37
2022-10-12T03:32:33.376Z,11.37
2022-10-12T03:35:00.369Z,11.40
2022-10-12T03:37:27.189Z,11.34
2022-10-12T03:39:53.865Z,11.51
2022-10-12T03:42:20.758Z,11.25
2022-10-12T03:44:47.378Z,11.17
2022-10-12T03:47:14.030Z,11.03
2022-10-12T03:49:40.639Z,11.11
2022-10-12T03:52:07.720Z,11.19
2022-10-12T03:54:34.565Z,11.12
2022-10-12T03:57:01.225Z,11.14
2022-10-12T03:59:28.139Z,11.09
2022-10-12T04:01:54.885Z,11.07
2022-10-12T04:04:21.986Z,10.96
2022-10-12T04:06:48.679Z,11.35
2022-10-12T04:09:18.548Z,10.94
2022-10-12T04:11:45.141Z,10.85
2022-10-12T04:14:12.040Z,10.80
2022-10-12T04:16:38.765Z,10.81
2022-10-12T04:19:05.355Z,10.88
2022-10-12T04:21:32.101Z,11.04
2022-10-12T04:23:58.990Z,11.09
2022-10-12T04:26:25.607Z,11.09
2022-10-12T04:28:52.255Z,11.00
2022-10-12T04:31:18.946Z,11.03
2022-10-12T04:33:45.870Z,11.09
2022-10-12T04:36:12.669Z,10.98
2022-10-12T04:38:39.481Z,11.07
2022-10-12T04:41:09.206Z,11.07
2022-10-12T04:43:35.823Z,10.87
2022-10-12T04:46:02.965Z,11.06
2022-10-12T04:48:29.650Z,10.97
2022-10-12T04:50:58.596Z,11.05
2022-10-12T04:53:25.249Z,11.09
2022-10-12T04:55:51.876Z,11.00
2022-10-12T04:58:18.894Z,10.94
2022-10-12T05:00:47.988Z,10.84
2022-10-12T05:03:14.960Z,11.14
2022-10-12T05:05:44.534Z,11.15
2022-10-12T05:08:12.096Z,11.06
2022-10-12T05:10:39.944Z,10.94
2022-10-12T05:13:09.125Z,10.92
2022-10-12T05:15:35.873Z,10.89
2022-10-12T05:18:02.437Z,11.16
2022-10-12T05:20:29.048Z,11.04
2022-10-12T05:22:57.964Z,10.81
2022-10-12T05:25:24.815Z,10.55
2022-10-12T05:27:51.505Z,10.59
2022-10-12T05:30:18.258Z,10.77
2022-10-12T05:32:44.985Z,10.56
2022-10-12T05:35:11.767Z,10.59
2022-10-12T05:37:39.067Z,10.39
2022-10-12T05:40:06.996Z,10.41
2022-10-12T05:42:34.665Z,10.44
2022-10-12T05:45:01.820Z,10.67
2022-10-12T05:47:30.742Z,10.59
2022-10-12T05:49:57.315Z,10.58
2022-10-12T05:52:24.188Z,10.46
2022-10-12T05:54:50.901Z,10.58
2022-10-12T05:57:17.620Z,10.58
2022-10-12T05:59:46.458Z,10.47
2022-10-12T06:02:15.127Z,10.47
2022-10-12T06:04:41.980Z,10.21
2022-10-12T06:07:08.957Z,10.28
2022-10-12T06:09:38.778Z,10.26
2022-10-12T06:12:06.605Z,10.41
2022-10-12T06:14:33.526Z,10.49
2022-10-12T06:17:00.306Z,10.40
2022-10-12T06:19:27.078Z,10.29
2022-10-12T06:21:56.391Z,10.47
2022-10-12T06:24:23.034Z,10.34
2022-10-12T06:26:49.652Z,10.37
2022-10-12T06:29:17.460Z,10.43
2022-10-12T06:31:48.991Z,10.54
2022-10-12T06:34:18.429Z,10.56
2022-10-12T06:36:45.130Z,10.75
2022-10-12T06:39:11.979Z,10.61
2022-10-12T06:41:39.051Z,10.61
2022-10-12T06:44:08.851Z,10.61
2022-10-12T06:46:36.019Z,10.38
2022-10-12T06:49:03.667Z,10.55
2022-10-12T06:51:30.279Z,10.54
2022-10-12T06:53:57.062Z,10.58
2022-10-12T06:56:23.672Z,10.60
2022-10-12T06:58:57.247Z,10.63
2022-10-12T07:01:24.241Z,10.68
2022-10-12T07:03:51.808Z,10.72
2022-10-12T07:06:18.869Z,10.62
2022-10-12T07:08:45.932Z,10.52
2022-10-12T07:11:13.549Z,10.63
2022-10-12T07:13:40.454Z,10.63
2022-10-12T07:16:07.481Z,10.83
2022-10-12T07:18:34.551Z,10.99
2022-10-12T07:21:02.689Z,10.87
2022-10-12T07:23:33.521Z,10.86
2022-10-12T07:26:00.658Z,10.93
2022-10-12T07:28:28.035Z,10.93
2022-10-12T07:30:54.766Z,10.92
2022-10-12T07:33:21.405Z,11.20
2022-10-12T07:36:13.308Z,11.40
2022-10-12T07:38:43.992Z,11.51
2022-10-12T07:41:11.362Z,11.90
2022-10-12T07:43:39.009Z,11.73
2022-10-12T07:46:06.211Z,11.64
2022-10-12T07:48:34.054Z,11.65
2022-10-12T07:51:05.405Z,12.01
2022-10-12T07:53:34.256Z,12.37
2022-10-12T07:56:06.827Z,12.42
2022-10-12T07:58:33.880Z,12.41
2022-10-12T08:01:08.161Z,12.52
2022-10-12T08:03:35.361Z,12.14
2022-10-12T08:06:12.944Z,12.27
2022-10-12T08:08:40.318Z,12.43
2022-10-12T08:11:08.108Z,12.44
2022-10-12T08:13:35.444Z,12.26
2022-10-12T08:16:04.838Z,12.32
2022-10-12T08:18:31.881Z,12.30
2022-10-12T08:20:58.592Z,12.42
2022-10-12T08:23:25.672Z,12.58
2022-10-12T08:25:53.605Z,12.36
2022-10-12T08:28:20.704Z,12.28
2022-10-12T08:30:47.394Z,12.15
2022-10-12T08:33:15.392Z,12.05
2022-10-12T08:35:42.804Z,12.12
2022-10-12T08:38:11.302Z,12.29
2022-10-12T08:40:47.047Z,12.29
2022-10-12T08:43:46.249Z,12.76
2022-10-12T08:46:13.345Z,13.00
2022-10-12T08:48:52.369Z,13.02
2022-10-12T08:51:24.655Z,12.88
2022-10-12T08:53:57.384Z,12.71
2022-10-12T08:56:24.862Z,12.92
2022-10-12T08:58:53.101Z,13.03
2022-10-12T09:01:19.763Z,12.84
2022-10-12T09:04:25.783Z,12.93
2022-10-12T09:07:10.526Z,13.26
2022-10-12T09:10:05.197Z,13.85
2022-10-12T09:12:46.779Z,14.80
2022-10-12T09:15:31.012Z,14.63
2022-10-12T09:18:00.336Z,14.13
2022-10-12T09:20:54.303Z,14.01
2022-10-12T09:23:30.601Z,13.85
2022-10-12T09:26:04.368Z,13.87
2022-10-12T09:28:49.051Z,14.34
2022-10-12T09:31:50.763Z,14.14
2022-10-12T09:34:19.395Z,14.14
2022-10-12T09:36:46.531Z,13.98
2022-10-12T09:39:18.713Z,13.81
2022-10-12T09:41:47.475Z,14.00
2022-10-12T09:44:28.422Z,13.77
2022-10-12T09:47:21.817Z,13.53
2022-10-12T09:49:50.397Z,13.60
2022-10-12T09:52:24.804Z,13.59
2022-10-12T09:55:05.283Z,13.74
2022-10-12T09:57:36.851Z,13.60
2022-10-12T10:00:08.697Z,13.77
2022-10-12T10:02:50.295Z,13.80
2022-10-12T10:05:32.116Z,13.67
2022-10-12T10:08:14.060Z,13.78
2022-10-12T10:10:55.509Z,13.82
2022-10-12T10:13:26.495Z,13.94
2022-10-12T10:16:04.828Z,13.82
2022-10-12T10:18:39.328Z,14.04
2022-10-12T10:21:14.649Z,14.10
2022-10-12T10:23:54.866Z,14.09
2022-10-12T10:26:24.037Z,14.00
2022-10-12T10:28:56.750Z,14.11
2022-10-12T10:31:28.018Z,14.23
2022-10-12T10:34:15.947Z,14.20
2022-10-12T10:36:56.422Z,14.20
2022-10-12T10:39:31.391Z,14.24
2022-10-12T10:42:12.789Z,14.80
2022-10-12T10:44:39.647Z,14.60
2022-10-12T10:47:12.649Z,14.71
2022-10-12T10:49:45.650Z,14.85
2022-10-12T10:52:26.658Z,14.82
2022-10-12T10:55:18.272Z,14.67
2022-10-12T10:57:54.914Z,14.73
2022-10-12T11:00:40.286Z,14.79
2022-10-12T11:03:25.546Z,14.88
2022-10-12T11:05:59.594Z,14.78
2022-10-12T11:08:30.395Z,14.95
2022-10-12T11:11:06.947Z,15.03
2022-10-12T11:13:55.673Z,15.06
2022-10-12T11:16:36.069Z,14.91
2022-10-12T11:19:18.164Z,14.84
2022-10-12T11:21:54.958Z,14.94
2022-10-12T11:24:31.912Z,15.04
2022-10-12T11:27:11.244Z,15.47
2022-10-12T11:29:38.403Z,15.38
2022-10-12T11:32:31.566Z,15.48
2022-10-12T11:35:03.035Z,15.68
2022-10-12T11:37:39.794Z,15.57
2022-10-12T11:40:17.215Z,15.70
2022-10-12T11:42:43.999Z,15.89
2022-10-12T11:45:20.888Z,15.86
2022-10-12T11:47:55.249Z,16.12
2022-10-12T11:50:37.052Z,16.08
2022-10-12T11:53:11.230Z,15.99
2022-10-12T11:55:44.435Z,16.03
2022-10-12T11:58:24.452Z,16.12
2022-10-12T12:01:22.628Z,16.37
2022-10-12T12:04:36.845Z,16.41
2022-10-12T12:07:06.794Z,16.60
2022-10-12T12:09:45.320Z,16.58
2022-10-12T12:12:28.273Z,16.46
2022-10-12T12:14:54.922Z,16.55
2022-10-12T12:17:26.942Z,16.52
2022-10-12T12:19:59.619Z,16.30
2022-10-12T12:22:44.890Z,16.04
2022-10-12T12:25:11.433Z,16.21
2022-10-12T12:28:15.477Z,16.17
2022-10-12T12:30:54.620Z,16.24
2022-10-12T12:33:21.131Z,16.41
2022-10-12T12:35:56.507Z,16.62
2022-10-12T12:38:28.127Z,16.49
2022-10-12T12:41:13.607Z,16.48
2022-10-12T12:43:56.063Z,16.35
2022-10-12T12:46:25.812Z,16.56
2022-10-12T12:48:52.360Z,16.79
2022-10-12T12:51:35.776Z,16.56
2022-10-12T12:54:20.461Z,16.54
2022-10-12T12:57:08.916Z,16.56
2022-10-12T13:00:04.294Z,16.56
2022-10-12T13:02:50.791Z,16.54
2022-10-12T13:05:57.226Z,16.90
2022-10-12T13:08:39.305Z,16.85
2022-10-12T13:11:33.639Z,16.97
2022-10-12T13:14:39.203Z,16.90
2022-10-12T13:17:40.430Z,16.86
2022-10-12T13:20:29.744Z,16.83
2022-10-12T13:22:58.326Z,16.92
2022-10-12T13:25:58.925Z,16.90
2022-10-12T13:28:29.513Z,16.86
2022-10-12T13:31:04.335Z,16.69
2022-10-12T13:33:41.473Z,16.78
2022-10-12T13:36:21.391Z,16.91
2022-10-12T13:38:48.246Z,16.99
2022-10-12T13:41:18.912Z,17.16
2022-10-12T13:43:48.638Z,17.12
2022-10-12T13:46:35.873Z,17.28
2022-10-12T13:49:04.294Z,17.42
2022-10-12T13:51:31.865Z,17.37
2022-10-12T13:53:58.619Z,17.60
2022-10-12T13:56:28.185Z,17.76
2022-10-12T13:59:04.126Z,17.75
2022-10-12T14:01:35.377Z,17.88
2022-10-12T14:04:05.463Z,17.99
2022-10-12T14:06:35.276Z,17.99
2022-10-12T14:09:17.128Z,18.10
2022-10-12T14:11:45.213Z,18.03
2022-10-12T14:14:29.884Z,18.12
2022-10-12T14:16:56.719Z,18.20
2022-10-12T14:19:36.066Z,18.13
2022-10-12T14:22:03.433Z,18.23
2022-10-12T14:24:30.748Z,18.33
2022-10-12T14:27:02.829Z,18.33
2022-10-12T14:29:32.571Z,18.22
2022-10-12T14:32:01.940Z,18.33
2022-10-12T14:34:31.934Z,18.26
2022-10-12T14:37:04.847Z,18.28
2022-10-12T14:39:31.919Z,18.40
2022-10-12T14:42:18.016Z,18.77
2022-10-12T14:44:44.847Z,18.56
2022-10-12T14:47:20.516Z,18.52
2022-10-12T14:49:49.134Z,18.37
2022-10-12T14:52:37.870Z,18.36
2022-10-12T14:55:05.625Z,18.34
2022-10-12T14:57:32.648Z,18.43
2022-10-12T14:59:59.256Z,18.57
2022-10-12T15:02:28.344Z,18.14
2022-10-12T15:04:56.471Z,18.15
2022-10-12T15:07:25.915Z,18.10
2022-10-12T15:09:53.430Z,18.00
2022-10-12T15:12:22.677Z,18.06
2022-10-12T15:14:51.481Z,18.05
2022-10-12T15:17:19.371Z,18.23
2022-10-12T15:19:48.647Z,18.04
2022-10-12T15:22:24.023Z,17.84
2022-10-12T15:24:52.982Z,17.79
2022-10-12T15:27:20.344Z,17.98
2022-10-12T15:29:48.081Z,17.70
2022-10-12T15:32:17.748Z,17.68
2022-10-12T15:34:45.145Z,17.53
2022-10-12T15:37:12.245Z,17.58
2022-10-12T15:39:39.185Z,17.57
2022-10-12T15:42:06.124Z,17.49
2022-10-12T15:44:42.651Z,17.47
2022-10-12T15:47:10.991Z,17.42
2022-10-12T15:49:38.490Z,17.74
2022-10-12T15:52:06.337Z,17.87
2022-10-12T15:54:32.949Z,17.71
2022-10-12T15:56:59.796Z,17.56
2022-10-12T15:59:27.245Z,17.36
2022-10-12T16:01:54.424Z,17.25
2022-10-12T16:04:21.188Z,17.47
2022-10-12T16:06:47.780Z,17.26
2022-10-12T16:09:14.439Z,17.09
2022-10-12T16:11:41.492Z,17.02
2022-10-12T16:14:10.679Z,17.05
2022-10-12T16:16:37.734Z,16.88
2022-10-12T16:19:04.736Z,16.87
2022-10-12T16:21:31.351Z,16.72
2022-10-12T16:23:59.030Z,16.71
2022-10-12T16:26:27.173Z,16.68
2022-10-12T16:28:53.777Z,16.75
2022-10-12T16:31:20.517Z,16.71
2022-10-12T16:33:47.998Z,16.52
2022-10-12T16:36:16.584Z,16.48
2022-10-12T16:38:43.906Z,16.47
2022-10-12T16:41:12.392Z,16.48
2022-10-12T16:43:39.157Z,16.53
2022-10-12T16:46:06.707Z,16.50
2022-10-12T16:48:33.729Z,16.54
2022-10-12T16:51:00.546Z,16.47
2022-10-12T16:53:27.495Z,16.29
2022-10-12T16:55:56.477Z,16.29
2022-10-12T16:58:23.333Z,16.44
2022-10-12T17:00:50.100Z,16.27
2022-10-12T17:03:16.800Z,16.24
2022-10-12T17:05:43.422Z,16.16
2022-10-12T17:08:15.334Z,16.17
2022-10-12T17:10:44.118Z,16.14
2022-10-12T17:13:13.186Z,16.17
2022-10-12T17:15:41.553Z,16.10
2022-10-12T17:18:08.763Z,16.07
2022-10-12T17:20:36.473Z,16.03
2022-10-12T17:23:03.967Z,16.08
2022-10-12T17:25:30.651Z,16.03
2022-10-12T17:27:57.351Z,16.02
2022-10-12T17:30:24.035Z,15.97
2022-10-12T17:32:50.750Z,16.01
2022-10-12T17:35:17.538Z,16.16
2022-10-12T17:37:44.348Z,16.20
2022-10-12T17:40:11.447Z,16.14
2022-10-12T17:42:38.192Z,16.08
2022-10-12T17:45:05.282Z,16.08
2022-10-12T17:47:31.988Z,15.99
2022-10-12T17:49:58.578Z,15.94
2022-10-12T17:52:25.236Z,15.92
2022-10-12T17:54:51.795Z,15.88
2022-10-12T17:57:18.867Z,15.91
2022-10-12T17:59:45.939Z,15.94
2022-10-12T18:02:12.630Z,15.87
2022-10-12T18:04:39.321Z,15.83
2022-10-12T18:07:05.951Z,15.78
2022-10-12T18:09:32.538Z,15.86
2022-10-12T18:11:59.164Z,15.93
2022-10-12T18:14:25.850Z,15.91
2022-10-12T18:16:54.265Z,15.84
2022-10-12T18:19:20.998Z,15.83
2022-10-12T18:21:47.641Z,15.73
2022-10-12T18:24:17.553Z,15.77
2022-10-12T18:26:45.901Z,15.78
2022-10-12T18:29:15.425Z,15.79
2022-10-12T18:31:42.140Z,15.83
2022-10-12T18:34:09.035Z,15.89
2022-10-12T18:36:35.710Z,15.74
2022-10-12T18:39:04.599Z,15.67
2022-10-12T18:41:31.688Z,15.70
2022-10-12T18:44:00.605Z,15.66
2022-10-12T18:46:29.102Z,15.70
2022-10-12T18:48:56.116Z,15.66
2022-10-12T18:51:29.751Z,15.61
2022-10-12T18:53:57.881Z,15.60
2022-10-12T18:56:25.639Z,15.60
2022-10-12T18:58:52.564Z,15.59
2022-10-12T19:01:22.708Z,15.52
2022-10-12T19:03:50.115Z,15.53
2022-10-12T19:06:20.294Z,15.54
2022-10-12T19:08:50.556Z,15.48
2022-10-12T19:11:20.055Z,15.56
2022-10-12T19:13:55.289Z,15.43
2022-10-12T19:16:23.039Z,15.42
2022-10-12T19:18:55.630Z,15.56
2022-10-12T19:21:22.514Z,15.55
2022-10-12T19:23:49.090Z,15.38
2022-10-12T19:26:18.190Z,15.27
2022-10-12T19:28:45.963Z,15.24
2022-10-12T19:31:21.881Z,15.19
2022-10-12T19:33:49.296Z,15.20
2022-10-12T19:36:18.317Z,15.26
2022-10-12T19:38:46.305Z,15.45
2022-10-12T19:41:13.227Z,15.27
2022-10-12T19:43:40.824Z,15.12
2022-10-12T19:46:10.406Z,15.10
2022-10-12T19:48:40.994Z,15.16
2022-10-12T19:51:12.973Z,14.99
2022-10-12T19:53:40.678Z,15.02
2022-10-12T19:56:15.716Z,14.95
2022-10-12T19:58:45.114Z,14.98
2022-10-12T20:01:14.847Z,14.99
2022-10-12T20:03:47.455Z,15.01
2022-10-12T20:06:14.814Z,15.18
2022-10-12T20:08:42.980Z,15.23
2022-10-12T20:11:16.956Z,15.24
2022-10-12T20:13:46.185Z,15.21
2022-10-12T20:16:14.042Z,15.02
2022-10-12T20:18:41.048Z,15.02
2022-10-12T20:21:09.906Z,14.95
2022-10-12T20:23:38.100Z,14.74
2022-10-12T20:26:08.204Z,14.64
2022-10-12T20:28:36.520Z,14.67
2022-10-12T20:31:05.918Z,14.66
2022-10-12T20:33:39.923Z,14.71
2022-10-12T20:36:27.493Z,14.88
2022-10-12T20:38:54.480Z,14.93
2022-10-12T20:41:25.398Z,14.86
2022-10-12T20:44:00.252Z,14.85
2022-10-12T20:46:28.191Z,14.75
2022-10-12T20:48:58.979Z,14.68
2022-10-12T20:51:32.258Z,14.69
2022-10-12T20:54:00.856Z,14.62
2022-10-12T20:56:29.170Z,14.52
2022-10-12T20:58:56.027Z,14.60
2022-10-12T21:01:24.345Z,14.48
2022-10-12T21:03:52.675Z,14.51
2022-10-12T21:06:21.535Z,14.57
2022-10-12T21:08:53.675Z,14.41
2022-10-12T21:11:21.595Z,14.45
2022-10-12T21:13:48.643Z,14.35
2022-10-12T21:16:16.504Z,14.39
2022-10-12T21:18:43.708Z,14.55
2022-10-12T21:21:14.107Z,14.70
2022-10-12T21:23:41.977Z,14.69
2022-10-12T21:26:17.102Z,14.75
2022-10-12T21:28:44.824Z,14.76
2022-10-12T21:31:13.123Z,14.74
2022-10-12T21:33:40.449Z,14.69
2022-10-12T21:36:10.236Z,14.71
2022-10-12T21:38:37.305Z,14.59
2022-10-12T21:41:05.164Z,14.42
2022-10-12T21:43:35.262Z,14.32
2022-10-12T21:46:10.508Z,14.31
2022-10-12T21:48:37.561Z,14.45
2022-10-12T21:51:05.861Z,14.57
2022-10-12T21:53:34.739Z,14.51
2022-10-12T21:56:14.300Z,14.32
2022-10-12T21:58:41.208Z,14.41
2022-10-12T22:01:10.963Z,14.41
2022-10-12T22:03:37.860Z,14.40
2022-10-12T22:06:04.859Z,14.39
2022-10-12T22:08:32.236Z,14.33
2022-10-12T22:11:06.986Z,14.29
2022-10-12T22:13:34.628Z,14.26
2022-10-12T22:16:04.053Z,14.16
2022-10-12T22:18:31.008Z,14.12
2022-10-12T22:20:58.044Z,14.07
2022-10-12T22:23:24.733Z,14.10
2022-10-12T22:25:53.328Z,14.08
2022-10-12T22:28:20.007Z,13.90
2022-10-12T22:30:46.927Z,13.93
2022-10-12T22:33:13.640Z,14.02
2022-10-12T22:35:40.214Z,14.11
2022-10-12T22:38:06.810Z,14.01
2022-10-12T22:40:33.472Z,13.98
2022-10-12T22:43:00.196Z,13.85
2022-10-12T22:45:28.137Z,14.01
2022-10-12T22:47:54.916Z,13.98
2022-10-12T22:50:21.698Z,14.00
2022-10-12T22:52:48.676Z,14.06
2022-10-12T22:55:15.657Z,14.07
2022-10-12T22:57:42.337Z,14.13
2022-10-12T23:00:09.464Z,14.13
2022-10-12T23:02:36.077Z,13.99
2022-10-12T23:05:03.399Z,14.00
2022-10-12T23:07:30.091Z,13.98
2022-10-12T23:09:56.680Z,14.05
2022-10-12T23:12:23.353Z,14.18
2022-10-12T23:14:51.246Z,14.19
2022-10-12T23:17:17.879Z,14.13
2022-10-12T23:19:44.447Z,14.18
2022-10-12T23:22:11.220Z,14.08
2022-10-12T23:24:40.182Z,14.19
2022-10-12T23:27:06.808Z,14.31
2022-10-12T23:29:33.585Z,14.26
2022-10-12T23:32:00.306Z,14.11
2022-10-12T23:34:26.983Z,14.18
2022-10-12T23:36:53.873Z,14.15
2022-10-12T23:39:22.267Z,14.12
2022-10-12T23:41:49.767Z,14.15
2022-10-12T23:44:16.806Z,13.96
2022-10-12T23:46:44.486Z,14.00
2022-10-12T23:49:11.503Z,14.03
2022-10-12T23:51:39.870Z,14.03
2022-10-12T23:54:06.917Z,14.02
2022-10-12T23:56:34.235Z,13.95
2022-10-12T23:59:01.342Z,13.91
